Time;durP1;ratioP1;P1;durP2;ratioP2;P2;SDS_P1;SDS_P2;PMS_P1;PMS_P2;Temp;Humidity;BMP_temperature;BMP_pressure;BME280_temperature;BME280_humidity;BME280_pressure;Samples;Min_cycle;Max_cycle;Signal;HPM_P1;HPM_P2
2022/08/26 00:02:22;;;;;;;14.30;12.60;;;20.70;99.90;;;;;;2621677;39;20753;-85
2022/08/26 00:08:11;;;;;;;13.67;12.57;;;20.60;99.90;;;;;;2620680;54;20383;-86
2022/08/26 00:13:59;;;;;;;15.17;12.07;;;20.60;99.90;;;;;;2620324;54;20919;-86
2022/08/26 00:19:47;;;;;;;14.30;13.07;;;20.50;99.90;;;;;;2620722;54;20192;-87
2022/08/26 00:25:36;;;;;;;14.40;12.10;;;20.70;99.90;;;;;;2620937;54;20123;-86
2022/08/26 00:31:23;;;;;;;14.27;12.80;;;20.60;99.90;;;;;;2620805;54;20390;-87
2022/08/26 00:37:12;;;;;;;15.07;13.57;;;20.50;99.90;;;;;;2620675;39;20216;-85
2022/08/26 00:40:15;;;;;;;16.23;14.63;;;20.40;99.90;;;;;;2620204;54;20419;-87
2022/08/26 00:42:41;;;;;;;16.33;14.30;;;20.50;99.90;;;;;;2619917;54;20160;-87
2022/08/26 00:52:44;;;;;;;15.63;14.10;;;20.20;99.90;;;;;;2620015;54;20406;-86
2022/08/26 00:58:34;;;;;;;16.93;14.20;;;20.50;99.90;;;;;;2619711;54;20401;-86
2022/08/26 01:04:23;;;;;;;17.73;13.33;;;20.30;99.90;;;;;;2616923;54;20414;-81
2022/08/26 01:10:15;;;;;;;14.47;13.10;;;20.20;99.90;;;;;;2617157;54;20390;-77
2022/08/26 01:16:07;;;;;;;15.80;14.37;;;20.00;99.90;;;;;;2616811;54;20410;-78
2022/08/26 01:34:34;;;;;;;17.47;15.43;;;19.90;99.90;;;;;;2616342;54;20389;-78
2022/08/26 01:40:31;;;;;;;16.23;14.53;;;20.20;99.90;;;;;;2620505;54;20448;-83
2022/08/26 01:46:21;;;;;;;15.63;14.07;;;20.10;99.90;;;;;;2618963;54;20988;-86
2022/08/26 01:55:31;;;;;;;15.77;14.47;;;20.50;99.90;;;;;;2615224;54;20415;-80
2022/08/26 02:01:20;;;;;;;17.43;15.23;;;20.50;99.90;;;;;;2615826;54;20384;-80
2022/08/26 02:07:08;;;;;;;18.03;15.57;;;20.40;99.90;;;;;;2615905;54;20380;-81
2022/08/26 02:12:56;;;;;;;19.13;17.33;;;20.30;99.90;;;;;;2616378;54;20369;-79
2022/08/26 02:18:44;;;;;;;28.00;19.40;;;20.20;99.90;;;;;;2617126;54;20637;-79
2022/08/26 02:24:54;;;;;;;23.90;21.60;;;20.00;99.90;;;;;;2616804;54;20409;-80
2022/08/26 02:30:44;;;;;;;22.53;20.20;;;19.90;99.90;;;;;;2616933;54;20413;-79
2022/08/26 02:36:31;;;;;;;22.40;20.33;;;20.00;99.90;;;;;;2616676;54;20364;-80
2022/08/26 02:42:19;;;;;;;25.40;22.67;;;19.90;99.90;;;;;;2617469;54;20156;-78
2022/08/26 02:48:13;;;;;;;28.70;25.73;;;19.70;99.90;;;;;;2617275;54;20168;-80
2022/08/26 02:57:27;;;;;;;39.63;35.73;;;19.60;99.90;;;;;;2617243;54;21097;-79
2022/08/26 03:03:14;;;;;;;45.60;41.00;;;19.50;99.90;;;;;;2621595;54;20379;-85
2022/08/26 03:09:03;;;;;;;54.63;48.93;;;19.60;99.90;;;;;;2620841;54;20256;-85
2022/08/26 03:14:52;;;;;;;63.20;56.63;;;19.60;99.90;;;;;;2621452;54;20930;-84
2022/08/26 03:20:40;;;;;;;63.20;56.67;;;19.60;99.90;;;;;;2620638;54;20411;-85
2022/08/26 03:26:30;;;;;;;66.23;59.63;;;19.30;99.90;;;;;;2620799;54;20416;-86
2022/08/26 03:32:19;;;;;;;77.60;67.37;;;19.40;99.90;;;;;;2621816;54;20476;-84
2022/08/26 03:38:07;;;;;;;72.27;64.93;;;19.50;99.90;;;;;;2616705;54;20978;-77
2022/08/26 03:43:56;;;;;;;78.00;70.27;;;19.40;99.90;;;;;;2617106;39;20775;-78
2022/08/26 03:49:44;;;;;;;82.80;72.20;;;19.40;99.90;;;;;;2616905;54;20417;-78
2022/08/26 03:55:49;;;;;;;87.73;78.23;;;19.30;99.90;;;;;;2615487;54;20130;-78
2022/08/26 04:01:37;;;;;;;94.77;83.17;;;19.30;99.90;;;;;;2616836;54;20674;-85
2022/08/26 04:07:28;;;;;;;95.30;83.60;;;19.30;99.90;;;;;;2617051;54;20161;-84
2022/08/26 04:13:15;;;;;;;107.73;90.50;;;19.50;99.90;;;;;;2615384;54;20386;-77
2022/08/26 04:19:03;;;;;;;94.40;80.90;;;19.60;99.90;;;;;;2615508;39;20975;-78
2022/08/26 04:24:50;;;;;;;101.10;83.77;;;19.80;99.90;;;;;;2615518;54;20361;-78
2022/08/26 04:30:39;;;;;;;95.57;77.47;;;19.80;99.90;;;;;;2616626;54;20369;-76
2022/08/26 04:36:27;;;;;;;98.23;77.33;;;19.90;99.90;;;;;;2616947;54;20392;-78
2022/08/26 04:42:15;;;;;;;91.17;76.27;;;20.00;99.90;;;;;;2617284;54;20504;-78
2022/08/26 04:48:03;;;;;;;93.60;72.80;;;20.00;99.90;;;;;;2616522;54;20223;-78
2022/08/26 04:57:19;;;;;;;92.80;75.50;;;20.00;99.90;;;;;;2616051;54;20432;-79
2022/08/26 05:03:07;;;;;;;95.03;71.77;;;20.00;99.90;;;;;;2616341;54;20912;-79
2022/08/26 05:08:55;;;;;;;90.67;74.33;;;20.10;99.90;;;;;;2618309;54;20418;-83
2022/08/26 05:14:43;;;;;;;85.40;69.87;;;20.20;99.90;;;;;;2618321;54;20429;-86
2022/08/26 05:20:32;;;;;;;87.77;65.83;;;20.20;99.90;;;;;;2618335;54;20689;-85
2022/08/26 05:32:34;;;;;;;74.93;62.80;;;20.30;99.90;;;;;;2617689;54;20923;-84
2022/08/26 05:38:22;;;;;;;72.97;58.97;;;20.40;99.90;;;;;;2618832;54;20426;-83
2022/08/26 05:44:12;;;;;;;72.40;60.60;;;20.50;99.90;;;;;;2618854;54;20131;-84
2022/08/26 05:50:04;;;;;;;65.87;58.67;;;20.60;99.90;;;;;;2617282;54;20369;-79
2022/08/26 05:52:48;;;;;;;67.50;55.80;;;20.60;99.90;;;;;;2617141;54;20429;-79
2022/08/26 05:55:15;;;;;;;63.10;54.27;;;20.70;99.90;;;;;;2617108;54;20447;-79
2022/08/26 06:01:09;;;;;;;62.67;53.17;;;20.70;99.90;;;;;;2617290;54;20395;-78
2022/08/26 06:06:57;;;;;;;79.60;52.10;;;20.90;99.90;;;;;;2617718;54;20403;-78
2022/08/26 06:12:45;;;;;;;61.63;48.87;;;20.90;99.90;;;;;;2616977;54;20441;-79
2022/08/26 06:18:37;;;;;;;57.00;50.07;;;20.80;99.90;;;;;;2616906;54;20243;-78
2022/08/26 06:30:37;;;;;;;60.10;48.90;;;21.10;99.90;;;;;;2617401;31;20826;-79
2022/08/26 06:36:29;;;;;;;59.73;52.77;;;21.00;99.90;;;;;;2616994;54;20526;-78
2022/08/26 06:42:18;;;;;;;54.30;47.37;;;21.10;99.90;;;;;;2617303;54;20364;-78
2022/08/26 06:48:06;;;;;;;64.20;51.00;;;21.20;99.90;;;;;;2617440;54;20418;-79
2022/08/26 06:57:16;;;;;;;53.40;47.83;;;21.40;99.90;;;;;;2617848;54;20419;-82
2022/08/26 07:03:06;;;;;;;48.10;42.90;;;21.50;99.90;;;;;;2619612;54;20134;-82
2022/08/26 07:15:09;;;;;;;45.30;40.90;;;21.50;99.90;;;;;;2618834;39;20753;-78
2022/08/26 07:21:04;;;;;;;47.43;42.10;;;21.70;99.90;;;;;;2618067;54;20504;-79
2022/08/26 07:26:52;;;;;;;43.60;39.07;;;21.70;99.90;;;;;;2617848;54;20388;-81
2022/08/26 07:32:40;;;;;;;41.80;37.77;;;21.60;99.90;;;;;;2618350;54;20119;-80
2022/08/26 07:38:29;;;;;;;44.00;39.60;;;21.90;99.90;;;;;;2617793;54;20396;-80
2022/08/26 07:44:17;;;;;;;42.33;37.73;;;21.80;99.90;;;;;;2618003;39;20467;-80
2022/08/26 07:50:05;;;;;;;40.70;36.50;;;21.60;99.90;;;;;;2617863;54;20375;-80
2022/08/26 07:52:48;;;;;;;42.20;37.70;;;21.80;99.90;;;;;;2617340;54;20403;-78
2022/08/26 07:55:15;;;;;;;48.07;43.53;;;21.70;99.90;;;;;;2616765;54;20471;-80
2022/08/26 08:01:04;;;;;;;42.70;38.40;;;21.90;99.90;;;;;;2617194;54;20969;-80
2022/08/26 08:06:55;;;;;;;37.33;33.47;;;22.00;99.90;;;;;;2617665;54;20383;-79
2022/08/26 08:12:43;;;;;;;38.73;34.73;;;21.80;99.90;;;;;;2618128;54;20415;-79
2022/08/26 08:18:32;;;;;;;41.00;36.70;;;21.60;99.90;;;;;;2617241;54;20411;-80
2022/08/26 08:24:20;;;;;;;49.97;45.17;;;21.80;99.90;;;;;;2618262;54;20352;-79
2022/08/26 08:30:09;;;;;;;43.63;39.23;;;21.70;99.90;;;;;;2617908;54;20363;-80
2022/08/26 08:35:58;;;;;;;39.50;35.87;;;21.80;99.90;;;;;;2618023;54;20508;-79
2022/08/26 08:42:12;;;;;;;40.17;36.07;;;22.00;99.90;;;;;;2617940;54;20491;-79
2022/08/26 08:48:05;;;;;;;43.77;36.10;;;21.80;99.90;;;;;;2617658;54;20415;-78
2022/08/26 09:21:18;;;;;;;39.00;31.63;;;22.50;99.90;;;;;;2618134;54;20445;-84
2022/08/26 09:27:05;;;;;;;37.00;32.70;;;22.30;99.90;;;;;;2619441;54;20425;-85
2022/08/26 09:32:59;;;;;;;39.60;35.63;;;22.20;99.90;;;;;;2619273;54;20147;-83
2022/08/26 09:38:46;;;;;;;37.77;33.00;;;22.70;99.90;;;;;;2616112;54;20425;-77
2022/08/26 09:50:59;;;;;;;33.83;30.67;;;22.60;99.90;;;;;;2616607;54;20431;-77
2022/08/26 09:56:47;;;;;;;29.80;26.93;;;23.20;99.90;;;;;;2617532;39;20774;-77
2022/08/26 10:02:39;;;;;;;26.50;24.00;;;23.20;99.90;;;;;;2617377;54;20149;-78
2022/08/26 10:08:33;;;;;;;27.40;23.50;;;23.00;99.90;;;;;;2617510;54;20380;-77
2022/08/26 10:14:27;;;;;;;20.50;18.67;;;22.80;99.90;;;;;;2617561;54;20399;-79
2022/08/26 10:33:15;;;;;;;17.93;16.03;;;22.90;99.90;;;;;;2620619;54;20403;-84
2022/08/26 10:39:13;;;;;;;17.13;15.27;;;23.50;99.90;;;;;;2620308;54;20122;-86
2022/08/26 10:55:55;;;;;;;17.87;15.97;;;22.80;99.90;;;;;;2621094;54;21067;-84
2022/08/26 11:08:18;;;;;;;14.90;13.50;;;23.20;99.90;;;;;;2620995;54;20429;-86
2022/08/26 11:14:08;;;;;;;15.37;14.10;;;23.40;99.90;;;;;;2620218;54;20141;-84
2022/08/26 11:19:58;;;;;;;13.43;12.40;;;23.10;99.90;;;;;;2620629;54;20366;-85
2022/08/26 11:25:57;;;;;;;14.57;13.07;;;23.10;99.90;;;;;;2622055;54;20384;-85
2022/08/26 11:31:49;;;;;;;20.40;16.63;;;22.80;99.90;;;;;;2621815;54;20398;-85
2022/08/26 11:37:50;;;;;;;15.10;13.70;;;23.40;99.90;;;;;;2624801;54;20398;-82
2022/08/26 11:43:39;;;;;;;13.23;12.00;;;23.20;99.90;;;;;;2624421;54;20415;-80
2022/08/26 11:49:28;;;;;;;11.70;10.47;;;23.20;99.90;;;;;;2618717;54;20394;-81
2022/08/26 11:55:16;;;;;;;13.80;12.50;;;23.40;99.90;;;;;;2617262;54;20945;-79
2022/08/26 11:58:10;;;;;;;13.80;12.33;;;23.40;99.90;;;;;;2617085;54;20393;-80
2022/08/26 12:07:27;;;;;;;12.90;11.60;;;23.50;99.90;;;;;;2615416;54;20437;-78
2022/08/26 12:13:24;;;;;;;13.50;12.57;;;23.30;99.90;;;;;;2617632;54;20440;-86
2022/08/26 12:19:25;;;;;;;11.83;10.83;;;23.40;99.90;;;;;;2620234;54;20404;-88
2022/08/26 12:25:12;;;;;;;13.67;10.70;;;23.50;99.90;;;;;;2621736;39;20932;-87
2022/08/26 12:31:02;;;;;;;14.73;10.90;;;23.60;99.90;;;;;;2616364;54;20113;-78
2022/08/26 12:36:55;;;;;;;12.37;11.27;;;23.10;99.90;;;;;;2615874;54;20371;-78
2022/08/26 12:42:43;;;;;;;11.43;10.43;;;23.20;99.90;;;;;;2617693;54;20447;-77
2022/08/26 12:48:37;;;;;;;11.93;10.70;;;23.80;99.90;;;;;;2617864;54;20380;-77
2022/08/26 12:54:57;;;;;;;13.57;12.00;;;23.30;99.90;;;;;;2617704;54;20378;-77
2022/08/26 12:58:05;;;;;;;11.80;10.70;;;23.70;99.90;;;;;;2617204;47;20414;-77
2022/08/26 13:00:36;;;;;;;13.23;10.97;;;23.70;99.90;;;;;;2616329;47;20412;-80
2022/08/26 13:06:30;;;;;;;12.20;11.10;;;23.30;99.90;;;;;;2616700;54;20448;-80
2022/08/26 13:12:33;;;;;;;11.07;9.93;;;23.30;99.90;;;;;;2617139;54;20351;-81
2022/08/26 13:18:21;;;;;;;11.00;10.03;;;23.30;99.90;;;;;;2618819;54;20463;-84
2022/08/26 13:24:14;;;;;;;10.30;9.30;;;23.30;99.90;;;;;;2619678;54;20163;-84
2022/08/26 13:30:02;;;;;;;12.00;10.83;;;23.10;99.90;;;;;;2621373;54;20375;-85
2022/08/26 13:35:53;;;;;;;11.27;10.03;;;23.40;99.90;;;;;;2621770;54;20403;-87
2022/08/26 13:41:42;;;;;;;13.93;9.93;;;23.70;99.90;;;;;;2621531;54;20399;-87
2022/08/26 13:47:30;;;;;;;11.10;9.93;;;23.60;99.90;;;;;;2621787;54;20664;-87
2022/08/26 13:53:19;;;;;;;11.30;9.67;;;23.50;99.90;;;;;;2621466;54;20956;-86
2022/08/26 14:02:38;;;;;;;16.40;8.73;;;23.60;99.90;;;;;;2620331;54;20419;-83
2022/08/26 14:08:26;;;;;;;13.63;9.50;;;23.50;99.90;;;;;;2620655;54;20374;-85
2022/08/26 14:14:14;;;;;;;10.40;9.50;;;23.10;99.90;;;;;;2620219;39;20438;-84
2022/08/26 14:20:03;;;;;;;9.43;8.63;;;23.20;99.90;;;;;;2619704;54;20146;-85
2022/08/26 14:25:51;;;;;;;8.83;8.13;;;23.30;99.90;;;;;;2621554;54;20411;-85
2022/08/26 14:31:39;;;;;;;14.77;8.03;;;23.40;99.90;;;;;;2621104;54;20377;-85
2022/08/26 14:37:27;;;;;;;8.27;7.17;;;23.30;99.90;;;;;;2621145;54;20158;-85
2022/08/26 14:43:15;;;;;;;9.47;7.77;;;23.20;99.90;;;;;;2621364;54;20151;-84
2022/08/26 14:49:03;;;;;;;15.83;7.63;;;23.30;99.90;;;;;;2620288;54;20158;-85
2022/08/26 14:54:51;;;;;;;10.27;7.63;;;23.40;99.90;;;;;;2622099;54;20130;-86
2022/08/26 14:58:05;;;;;;;8.70;7.70;;;23.50;99.90;;;;;;2620642;54;21004;-85
2022/08/26 15:00:31;;;;;;;8.57;7.43;;;23.50;99.90;;;;;;2621077;54;20151;-86
2022/08/26 15:06:19;;;;;;;8.23;6.67;;;23.70;99.90;;;;;;2622075;54;20378;-85
2022/08/26 15:12:07;;;;;;;8.00;7.30;;;23.50;99.90;;;;;;2621415;54;20343;-84
2022/08/26 15:17:56;;;;;;;8.77;7.37;;;23.20;99.90;;;;;;2621237;54;20135;-84
2022/08/26 15:23:45;;;;;;;8.10;7.30;;;23.20;99.90;;;;;;2621124;54;20375;-85
2022/08/26 15:29:32;;;;;;;10.23;8.40;;;23.10;99.90;;;;;;2620827;39;20758;-84
2022/08/26 15:35:20;;;;;;;10.23;8.07;;;23.00;99.90;;;;;;2618377;54;20121;-80
2022/08/26 15:41:09;;;;;;;12.10;8.63;;;22.70;99.90;;;;;;2618099;46;20153;-79
2022/08/26 15:46:57;;;;;;;10.37;9.53;;;22.50;99.90;;;;;;2617775;54;20455;-80
2022/08/26 15:52:46;;;;;;;14.50;9.43;;;22.50;99.90;;;;;;2617970;39;21193;-80
2022/08/26 16:02:37;;;;;;;12.93;9.30;;;22.30;99.90;;;;;;2622830;54;20371;-87
2022/08/26 16:08:25;;;;;;;9.07;7.60;;;22.50;99.90;;;;;;2621957;54;20398;-86
2022/08/26 16:14:13;;;;;;;9.83;8.70;;;22.40;99.90;;;;;;2621653;31;21007;-86
2022/08/26 16:20:01;;;;;;;13.37;9.23;;;22.20;99.90;;;;;;2621034;54;20786;-87
2022/08/26 16:25:49;;;;;;;13.73;7.00;;;22.20;99.90;;;;;;2621061;54;20447;-84
2022/08/26 16:31:38;;;;;;;13.53;7.70;;;22.20;99.90;;;;;;2621742;54;20379;-84
2022/08/26 16:37:26;;;;;;;10.63;8.00;;;22.10;99.90;;;;;;2620413;54;20383;-86
2022/08/26 16:43:14;;;;;;;7.57;6.93;;;22.10;99.90;;;;;;2620694;54;20415;-86
2022/08/26 16:49:03;;;;;;;8.03;7.10;;;22.00;99.90;;;;;;2620220;54;20130;-87
2022/08/26 16:54:51;;;;;;;10.63;8.53;;;21.90;99.90;;;;;;2616661;54;20371;-80
2022/08/26 17:00:48;;;;;;;8.83;7.73;;;21.90;99.90;;;;;;2616703;54;20455;-83
2022/08/26 17:06:36;;;;;;;10.73;7.00;;;21.80;99.90;;;;;;2616923;54;20153;-84
2022/08/26 17:12:24;;;;;;;9.33;7.30;;;21.80;99.90;;;;;;2617648;54;20444;-85
2022/08/26 17:18:11;;;;;;;9.87;7.03;;;21.80;99.90;;;;;;2619500;54;20118;-86
2022/08/26 17:23:59;;;;;;;7.70;6.90;;;21.70;99.90;;;;;;2618665;54;20129;-85
2022/08/26 17:29:46;;;;;;;9.73;7.93;;;21.70;99.90;;;;;;2619703;54;20436;-86
2022/08/26 17:35:37;;;;;;;9.80;5.83;;;21.60;99.90;;;;;;2621332;54;20148;-88
2022/08/26 17:41:26;;;;;;;8.90;6.47;;;21.60;99.90;;;;;;2622114;39;20739;-86
2022/08/26 17:47:14;;;;;;;13.00;6.50;;;21.50;99.90;;;;;;2620340;54;20419;-85
2022/08/26 17:53:02;;;;;;;6.77;5.93;;;21.40;99.90;;;;;;2619934;54;20121;-86
2022/08/26 18:02:36;;;;;;;6.60;6.00;;;21.30;99.90;;;;;;2619989;54;20422;-86
2022/08/26 18:08:24;;;;;;;9.90;6.07;;;21.20;99.90;;;;;;2619166;54;20407;-85
2022/08/26 18:14:13;;;;;;;7.80;5.90;;;21.20;99.90;;;;;;2619477;54;20130;-86
2022/08/26 18:20:00;;;;;;;9.23;6.73;;;21.20;99.90;;;;;;2619339;54;20941;-85
2022/08/26 18:25:48;;;;;;;10.50;5.77;;;21.10;99.90;;;;;;2619385;54;20397;-85
2022/08/26 18:31:36;;;;;;;7.20;6.60;;;21.00;99.90;;;;;;2618945;54;20488;-84
2022/08/26 18:37:24;;;;;;;6.87;5.67;;;21.00;99.90;;;;;;2619449;54;20151;-85
2022/08/26 18:40:27;;;;;;;6.60;6.00;;;21.10;99.90;;;;;;2619035;54;20420;-85
2022/08/26 18:42:53;;;;;;;7.67;6.30;;;21.10;99.90;;;;;;2619117;54;20146;-80
2022/08/26 18:48:41;;;;;;;10.73;6.80;;;21.00;99.90;;;;;;2619268;54;20166;-86
2022/08/26 18:54:29;;;;;;;8.77;7.00;;;21.00;99.90;;;;;;2619273;54;20471;-84
2022/08/26 19:00:17;;;;;;;8.87;6.50;;;20.90;99.90;;;;;;2619616;54;20234;-84
2022/08/26 19:06:05;;;;;;;8.00;5.87;;;20.80;99.90;;;;;;2619508;54;20120;-84
2022/08/26 19:11:54;;;;;;;6.90;5.70;;;20.80;99.90;;;;;;2620273;31;20813;-83
2022/08/26 19:17:42;;;;;;;6.20;5.57;;;20.80;99.90;;;;;;2619395;54;20399;-86
2022/08/26 19:23:30;;;;;;;6.10;5.43;;;20.70;99.90;;;;;;2619313;54;20647;-85
2022/08/26 19:29:19;;;;;;;8.10;5.10;;;20.70;99.90;;;;;;2619583;54;20126;-87
2022/08/26 19:35:07;;;;;;;9.10;5.47;;;20.60;99.90;;;;;;2617986;54;20405;-86
2022/08/26 19:40:57;;;;;;;6.33;5.73;;;20.70;99.90;;;;;;2619856;54;20403;-86
2022/08/26 19:46:45;;;;;;;5.20;4.73;;;20.60;99.90;;;;;;2619681;54;20387;-85
2022/08/26 19:52:33;;;;;;;7.13;5.37;;;20.60;99.90;;;;;;2619189;54;20134;-85
2022/08/26 20:02:36;;;;;;;5.93;5.00;;;20.40;99.90;;;;;;2618457;54;20414;-86
2022/08/26 20:08:24;;;;;;;5.60;4.97;;;20.40;99.90;;;;;;2619507;39;20816;-85
2022/08/26 20:14:11;;;;;;;5.53;4.87;;;20.30;99.90;;;;;;2619245;54;20150;-87
2022/08/26 20:26:07;;;;;;;10.90;6.20;;;20.20;99.90;;;;;;2619095;54;20923;-84
2022/08/26 20:31:55;;;;;;;6.73;6.00;;;20.00;99.90;;;;;;2618705;54;20403;-84
2022/08/26 20:37:43;;;;;;;6.70;6.10;;;19.90;99.90;;;;;;2617823;54;20161;-85
2022/08/26 20:43:30;;;;;;;6.77;5.87;;;20.00;99.90;;;;;;2617965;39;20506;-83
2022/08/26 20:49:18;;;;;;;13.53;7.17;;;19.80;99.90;;;;;;2618558;46;20168;-84
2022/08/26 20:55:06;;;;;;;7.80;6.70;;;19.70;99.90;;;;;;2617587;54;20412;-83
2022/08/26 20:58:06;;;;;;;9.47;6.80;;;19.60;99.90;;;;;;2617392;54;20400;-83
2022/08/26 21:00:32;;;;;;;7.53;6.77;;;19.60;99.90;;;;;;2618043;47;20506;-84
2022/08/26 21:06:20;;;;;;;7.27;6.67;;;19.50;99.90;;;;;;2617991;54;20187;-84
2022/08/26 21:12:07;;;;;;;9.33;7.07;;;19.50;99.90;;;;;;2617906;39;20753;-84
2022/08/26 21:17:56;;;;;;;8.40;7.13;;;19.40;99.90;;;;;;2616579;54;20143;-79
2022/08/26 21:23:44;;;;;;;8.03;6.63;;;19.30;99.90;;;;;;2616972;54;20434;-78
2022/08/26 21:29:31;;;;;;;10.40;7.70;;;19.20;99.90;;;;;;2616992;54;20406;-79
2022/08/26 21:35:19;;;;;;;7.13;6.57;;;19.20;99.90;;;;;;2616429;54;20238;-79
2022/08/26 21:47:23;;;;;;;8.10;6.80;;;18.90;99.90;;;;;;2616961;54;20376;-80
2022/08/26 21:53:14;;;;;;;13.13;6.70;;;18.80;99.90;;;;;;2616642;54;20374;-78
2022/08/26 22:09:23;;;;;;;8.97;8.20;;;18.30;99.90;;;;;;2616466;54;20380;-83
2022/08/26 22:18:31;;;;;;;12.03;8.63;;;18.00;99.90;;;;;;2617759;39;21006;-83
2022/08/26 22:24:21;;;;;;;10.77;9.77;;;17.90;99.90;;;;;;2617050;54;20376;-83
2022/08/26 22:30:08;;;;;;;10.33;9.63;;;17.90;99.90;;;;;;2617406;46;20443;-84
2022/08/26 22:35:56;;;;;;;11.90;11.00;;;17.80;99.90;;;;;;2617403;54;20365;-83
2022/08/26 22:41:47;;;;;;;14.40;13.00;;;17.80;99.90;;;;;;2618582;54;20128;-84
2022/08/26 22:47:35;;;;;;;13.37;12.37;;;17.80;99.90;;;;;;2618525;54;20384;-84
2022/08/26 22:53:22;;;;;;;13.17;12.00;;;17.60;99.90;;;;;;2618897;54;20377;-85
2022/08/26 23:02:42;;;;;;;12.67;11.67;;;17.50;99.90;;;;;;2617964;54;21003;-78
2022/08/26 23:08:29;;;;;;;13.57;12.43;;;17.50;99.90;;;;;;2617652;54;20421;-78
2022/08/26 23:14:18;;;;;;;11.67;10.30;;;17.40;99.90;;;;;;2618005;54;20133;-79
2022/08/26 23:20:09;;;;;;;12.07;10.83;;;17.40;99.90;;;;;;2617477;54;20922;-78
2022/08/26 23:25:57;;;;;;;13.03;10.57;;;17.50;99.90;;;;;;2617518;54;20410;-78
2022/08/26 23:31:45;;;;;;;12.70;11.57;;;17.40;99.90;;;;;;2617463;54;20372;-78
2022/08/26 23:37:38;;;;;;;13.90;11.13;;;17.40;99.90;;;;;;2617356;54;20389;-79
2022/08/26 23:43:28;;;;;;;14.93;11.63;;;17.40;99.90;;;;;;2617651;54;20381;-79
2022/08/26 23:49:16;;;;;;;16.90;12.87;;;17.40;99.90;;;;;;2618156;54;20394;-77
2022/08/26 23:55:05;;;;;;;19.87;14.57;;;17.40;99.90;;;;;;2618477;54;20389;-84
